sensor_id;sensor_type;location;lat;lon;timestamp;P1;durP1;ratioP1;P2;durP2;ratioP2
39322;SDS011;25036;53.638;10.134;2022-08-19T00:00:45;11.43;;;9.63;;
39322;SDS011;25036;53.638;10.134;2022-08-19T00:01:46;12.17;;;9.00;;
39322;SDS011;25036;53.638;10.134;2022-08-19T00:02:47;11.57;;;9.00;;
39322;SDS011;25036;53.638;10.134;2022-08-19T00:03:47;12.83;;;9.33;;
39322;SDS011;25036;53.638;10.134;2022-08-19T00:04:47;10.98;;;8.07;;
39322;SDS011;25036;53.638;10.134;2022-08-19T00:05:52;10.63;;;8.43;;
39322;SDS011;25036;53.638;10.134;2022-08-19T00:06:52;11.57;;;8.47;;
39322;SDS011;25036;53.638;10.134;2022-08-19T00:07:53;11.90;;;8.73;;
39322;SDS011;25036;53.638;10.134;2022-08-19T00:08:53;13.48;;;8.75;;
39322;SDS011;25036;53.638;10.134;2022-08-19T00:09:53;13.40;;;9.20;;
39322;SDS011;25036;53.638;10.134;2022-08-19T00:10:53;11.07;;;9.65;;
39322;SDS011;25036;53.638;10.134;2022-08-19T00:11:53;12.83;;;9.50;;
39322;SDS011;25036;53.638;10.134;2022-08-19T00:12:55;14.48;;;10.82;;
39322;SDS011;25036;53.638;10.134;2022-08-19T00:13:56;15.48;;;11.23;;
39322;SDS011;25036;53.638;10.134;2022-08-19T00:14:56;17.10;;;11.27;;
39322;SDS011;25036;53.638;10.134;2022-08-19T00:15:56;15.63;;;11.40;;
39322;SDS011;25036;53.638;10.134;2022-08-19T00:16:58;14.25;;;11.68;;
39322;SDS011;25036;53.638;10.134;2022-08-19T00:17:58;15.70;;;11.65;;
39322;SDS011;25036;53.638;10.134;2022-08-19T00:18:59;15.67;;;11.10;;
39322;SDS011;25036;53.638;10.134;2022-08-19T00:19:59;14.87;;;10.97;;
39322;SDS011;25036;53.638;10.134;2022-08-19T00:20:59;14.90;;;10.97;;
39322;SDS011;25036;53.638;10.134;2022-08-19T00:21:59;17.15;;;12.30;;
39322;SDS011;25036;53.638;10.134;2022-08-19T00:22:59;12.30;;;10.50;;
39322;SDS011;25036;53.638;10.134;2022-08-19T00:23:59;18.57;;;12.23;;
39322;SDS011;25036;53.638;10.134;2022-08-19T00:25:00;16.17;;;11.90;;
39322;SDS011;25036;53.638;10.134;2022-08-19T00:26:00;12.33;;;10.80;;
39322;SDS011;25036;53.638;10.134;2022-08-19T00:27:00;16.20;;;11.80;;
39322;SDS011;25036;53.638;10.134;2022-08-19T00:28:02;14.90;;;11.27;;
39322;SDS011;25036;53.638;10.134;2022-08-19T00:29:02;13.32;;;11.40;;
39322;SDS011;25036;53.638;10.134;2022-08-19T00:30:03;15.43;;;11.52;;
39322;SDS011;25036;53.638;10.134;2022-08-19T00:31:04;14.38;;;11.05;;
39322;SDS011;25036;53.638;10.134;2022-08-19T00:32:05;12.93;;;10.40;;
39322;SDS011;25036;53.638;10.134;2022-08-19T00:33:06;16.45;;;11.15;;
39322;SDS011;25036;53.638;10.134;2022-08-19T00:34:07;15.10;;;11.63;;
39322;SDS011;25036;53.638;10.134;2022-08-19T00:35:07;16.53;;;13.17;;
39322;SDS011;25036;53.638;10.134;2022-08-19T00:36:09;16.77;;;11.95;;
39322;SDS011;25036;53.638;10.134;2022-08-19T00:37:09;18.80;;;12.18;;
39322;SDS011;25036;53.638;10.134;2022-08-19T00:38:10;16.13;;;11.43;;
39322;SDS011;25036;53.638;10.134;2022-08-19T00:39:10;13.47;;;11.10;;
39322;SDS011;25036;53.638;10.134;2022-08-19T00:40:11;18.25;;;12.10;;
39322;SDS011;25036;53.638;10.134;2022-08-19T00:41:13;13.82;;;10.60;;
39322;SDS011;25036;53.638;10.134;2022-08-19T00:42:14;15.95;;;11.60;;
39322;SDS011;25036;53.638;10.134;2022-08-19T00:43:18;17.75;;;12.18;;
39322;SDS011;25036;53.638;10.134;2022-08-19T00:44:23;15.60;;;11.95;;
39322;SDS011;25036;53.638;10.134;2022-08-19T00:45:25;17.05;;;11.55;;
39322;SDS011;25036;53.638;10.134;2022-08-19T00:46:26;15.38;;;11.48;;
39322;SDS011;25036;53.638;10.134;2022-08-19T00:47:26;16.80;;;11.68;;
39322;SDS011;25036;53.638;10.134;2022-08-19T00:48:26;17.17;;;11.20;;
39322;SDS011;25036;53.638;10.134;2022-08-19T00:50:27;15.13;;;11.40;;
39322;SDS011;25036;53.638;10.134;2022-08-19T00:51:28;14.95;;;11.13;;
39322;SDS011;25036;53.638;10.134;2022-08-19T00:52:32;15.15;;;11.30;;
39322;SDS011;25036;53.638;10.134;2022-08-19T00:53:33;17.50;;;11.82;;
39322;SDS011;25036;53.638;10.134;2022-08-19T00:54:34;14.60;;;11.80;;
39322;SDS011;25036;53.638;10.134;2022-08-19T00:55:36;18.98;;;12.50;;
39322;SDS011;25036;53.638;10.134;2022-08-19T00:56:37;17.95;;;12.27;;
39322;SDS011;25036;53.638;10.134;2022-08-19T00:57:38;18.27;;;12.60;;
39322;SDS011;25036;53.638;10.134;2022-08-19T00:58:40;14.52;;;10.68;;
39322;SDS011;25036;53.638;10.134;2022-08-19T00:59:41;16.63;;;12.00;;
39322;SDS011;25036;53.638;10.134;2022-08-19T01:00:41;14.75;;;11.15;;
39322;SDS011;25036;53.638;10.134;2022-08-19T01:01:42;16.65;;;11.73;;
39322;SDS011;25036;53.638;10.134;2022-08-19T01:02:43;15.35;;;10.82;;
39322;SDS011;25036;53.638;10.134;2022-08-19T01:03:44;14.40;;;11.27;;
39322;SDS011;25036;53.638;10.134;2022-08-19T01:04:44;15.43;;;9.80;;
39322;SDS011;25036;53.638;10.134;2022-08-19T01:05:44;15.93;;;10.87;;
39322;SDS011;25036;53.638;10.134;2022-08-19T01:06:45;18.92;;;11.90;;
39322;SDS011;25036;53.638;10.134;2022-08-19T01:07:45;15.95;;;11.43;;
39322;SDS011;25036;53.638;10.134;2022-08-19T01:08:46;17.13;;;12.02;;
39322;SDS011;25036;53.638;10.134;2022-08-19T01:09:46;15.25;;;11.38;;
39322;SDS011;25036;53.638;10.134;2022-08-19T01:10:47;13.80;;;9.77;;
39322;SDS011;25036;53.638;10.134;2022-08-19T01:11:48;16.10;;;11.30;;
39322;SDS011;25036;53.638;10.134;2022-08-19T01:12:49;15.57;;;10.93;;
39322;SDS011;25036;53.638;10.134;2022-08-19T01:13:49;17.02;;;11.45;;
39322;SDS011;25036;53.638;10.134;2022-08-19T01:14:50;17.42;;;12.15;;
39322;SDS011;25036;53.638;10.134;2022-08-19T01:15:56;17.00;;;11.15;;
39322;SDS011;25036;53.638;10.134;2022-08-19T01:16:57;18.80;;;12.10;;
39322;SDS011;25036;53.638;10.134;2022-08-19T01:18:00;15.38;;;11.65;;
39322;SDS011;25036;53.638;10.134;2022-08-19T01:19:01;16.90;;;11.73;;
39322;SDS011;25036;53.638;10.134;2022-08-19T01:20:02;14.50;;;11.73;;
39322;SDS011;25036;53.638;10.134;2022-08-19T01:21:05;15.85;;;11.30;;
39322;SDS011;25036;53.638;10.134;2022-08-19T01:22:08;18.08;;;11.88;;
39322;SDS011;25036;53.638;10.134;2022-08-19T01:23:11;14.95;;;11.23;;
39322;SDS011;25036;53.638;10.134;2022-08-19T01:24:11;18.27;;;12.43;;
39322;SDS011;25036;53.638;10.134;2022-08-19T01:25:12;14.43;;;11.77;;
39322;SDS011;25036;53.638;10.134;2022-08-19T01:26:14;16.58;;;12.02;;
39322;SDS011;25036;53.638;10.134;2022-08-19T01:27:16;16.75;;;11.40;;
39322;SDS011;25036;53.638;10.134;2022-08-19T01:28:21;13.70;;;11.70;;
39322;SDS011;25036;53.638;10.134;2022-08-19T01:29:21;19.25;;;12.15;;
39322;SDS011;25036;53.638;10.134;2022-08-19T01:30:24;16.23;;;12.20;;
39322;SDS011;25036;53.638;10.134;2022-08-19T01:31:25;16.20;;;13.23;;
39322;SDS011;25036;53.638;10.134;2022-08-19T01:32:26;16.13;;;11.32;;
39322;SDS011;25036;53.638;10.134;2022-08-19T01:33:26;16.20;;;12.00;;
39322;SDS011;25036;53.638;10.134;2022-08-19T01:34:26;14.27;;;10.83;;
39322;SDS011;25036;53.638;10.134;2022-08-19T01:35:27;13.35;;;11.32;;
39322;SDS011;25036;53.638;10.134;2022-08-19T01:36:32;15.52;;;11.80;;
39322;SDS011;25036;53.638;10.134;2022-08-19T01:39:10;15.52;;;11.45;;
39322;SDS011;25036;53.638;10.134;2022-08-19T01:40:11;15.88;;;11.93;;
39322;SDS011;25036;53.638;10.134;2022-08-19T01:41:11;17.38;;;11.73;;
39322;SDS011;25036;53.638;10.134;2022-08-19T01:42:12;16.92;;;12.02;;
39322;SDS011;25036;53.638;10.134;2022-08-19T01:43:12;17.63;;;11.90;;
39322;SDS011;25036;53.638;10.134;2022-08-19T01:44:12;17.67;;;12.37;;
39322;SDS011;25036;53.638;10.134;2022-08-19T01:45:12;17.00;;;12.32;;
39322;SDS011;25036;53.638;10.134;2022-08-19T01:46:13;16.92;;;12.93;;
39322;SDS011;25036;53.638;10.134;2022-08-19T01:47:13;16.70;;;12.10;;
39322;SDS011;25036;53.638;10.134;2022-08-19T01:48:13;15.23;;;11.40;;
39322;SDS011;25036;53.638;10.134;2022-08-19T01:49:13;15.23;;;12.13;;
39322;SDS011;25036;53.638;10.134;2022-08-19T01:50:14;16.75;;;12.15;;
39322;SDS011;25036;53.638;10.134;2022-08-19T01:51:14;18.45;;;13.43;;
39322;SDS011;25036;53.638;10.134;2022-08-19T01:52:14;16.63;;;11.93;;
39322;SDS011;25036;53.638;10.134;2022-08-19T01:53:14;19.13;;;14.27;;
39322;SDS011;25036;53.638;10.134;2022-08-19T01:54:15;18.60;;;13.77;;
39322;SDS011;25036;53.638;10.134;2022-08-19T01:55:17;18.95;;;13.43;;
39322;SDS011;25036;53.638;10.134;2022-08-19T01:56:18;19.92;;;13.40;;
39322;SDS011;25036;53.638;10.134;2022-08-19T01:57:18;14.18;;;11.98;;
39322;SDS011;25036;53.638;10.134;2022-08-19T01:58:19;18.52;;;13.65;;
39322;SDS011;25036;53.638;10.134;2022-08-19T01:59:21;20.50;;;13.60;;
39322;SDS011;25036;53.638;10.134;2022-08-19T02:00:23;17.13;;;12.57;;
39322;SDS011;25036;53.638;10.134;2022-08-19T02:01:23;16.60;;;13.00;;
39322;SDS011;25036;53.638;10.134;2022-08-19T02:02:24;20.60;;;14.55;;
39322;SDS011;25036;53.638;10.134;2022-08-19T02:03:24;17.95;;;13.00;;
39322;SDS011;25036;53.638;10.134;2022-08-19T02:04:25;17.98;;;12.73;;
39322;SDS011;25036;53.638;10.134;2022-08-19T02:05:27;19.98;;;13.82;;
39322;SDS011;25036;53.638;10.134;2022-08-19T02:06:29;20.35;;;15.05;;
39322;SDS011;25036;53.638;10.134;2022-08-19T02:07:29;19.98;;;14.60;;
39322;SDS011;25036;53.638;10.134;2022-08-19T02:08:29;19.97;;;15.00;;
39322;SDS011;25036;53.638;10.134;2022-08-19T02:09:30;17.85;;;12.68;;
39322;SDS011;25036;53.638;10.134;2022-08-19T02:10:31;19.10;;;14.15;;
39322;SDS011;25036;53.638;10.134;2022-08-19T02:11:33;20.45;;;13.98;;
39322;SDS011;25036;53.638;10.134;2022-08-19T02:12:33;18.77;;;13.98;;
39322;SDS011;25036;53.638;10.134;2022-08-19T02:13:34;16.35;;;12.80;;
39322;SDS011;25036;53.638;10.134;2022-08-19T02:14:35;17.90;;;13.93;;
39322;SDS011;25036;53.638;10.134;2022-08-19T02:15:35;19.77;;;14.32;;
39322;SDS011;25036;53.638;10.134;2022-08-19T02:16:35;16.67;;;13.27;;
39322;SDS011;25036;53.638;10.134;2022-08-19T02:17:36;19.20;;;12.88;;
39322;SDS011;25036;53.638;10.134;2022-08-19T02:18:36;17.83;;;12.97;;
39322;SDS011;25036;53.638;10.134;2022-08-19T02:19:36;16.52;;;12.68;;
39322;SDS011;25036;53.638;10.134;2022-08-19T02:20:37;19.37;;;14.07;;
39322;SDS011;25036;53.638;10.134;2022-08-19T02:21:38;18.33;;;13.05;;
39322;SDS011;25036;53.638;10.134;2022-08-19T02:22:38;17.10;;;12.85;;
39322;SDS011;25036;53.638;10.134;2022-08-19T02:23:41;18.05;;;13.60;;
39322;SDS011;25036;53.638;10.134;2022-08-19T02:24:42;21.92;;;13.13;;
39322;SDS011;25036;53.638;10.134;2022-08-19T02:25:43;17.47;;;12.47;;
39322;SDS011;25036;53.638;10.134;2022-08-19T02:26:44;19.60;;;13.50;;
39322;SDS011;25036;53.638;10.134;2022-08-19T02:27:44;18.00;;;13.65;;
39322;SDS011;25036;53.638;10.134;2022-08-19T02:28:44;19.23;;;13.00;;
39322;SDS011;25036;53.638;10.134;2022-08-19T02:29:48;20.65;;;13.57;;
39322;SDS011;25036;53.638;10.134;2022-08-19T02:30:49;17.83;;;13.25;;
39322;SDS011;25036;53.638;10.134;2022-08-19T02:31:49;16.60;;;12.30;;
39322;SDS011;25036;53.638;10.134;2022-08-19T02:32:50;19.77;;;13.23;;
39322;SDS011;25036;53.638;10.134;2022-08-19T02:33:50;19.63;;;13.10;;
39322;SDS011;25036;53.638;10.134;2022-08-19T02:34:52;16.73;;;11.65;;
39322;SDS011;25036;53.638;10.134;2022-08-19T02:35:52;20.97;;;12.50;;
39322;SDS011;25036;53.638;10.134;2022-08-19T02:36:52;19.67;;;12.90;;
39322;SDS011;25036;53.638;10.134;2022-08-19T02:37:52;18.10;;;11.90;;
39322;SDS011;25036;53.638;10.134;2022-08-19T02:39:11;20.77;;;12.45;;
39322;SDS011;25036;53.638;10.134;2022-08-19T02:40:11;19.73;;;13.63;;
39322;SDS011;25036;53.638;10.134;2022-08-19T02:41:16;20.30;;;13.13;;
39322;SDS011;25036;53.638;10.134;2022-08-19T02:42:17;20.10;;;12.65;;
39322;SDS011;25036;53.638;10.134;2022-08-19T02:43:18;20.50;;;13.13;;
39322;SDS011;25036;53.638;10.134;2022-08-19T02:44:20;20.05;;;13.38;;
39322;SDS011;25036;53.638;10.134;2022-08-19T02:45:20;16.90;;;12.55;;
39322;SDS011;25036;53.638;10.134;2022-08-19T02:46:25;20.55;;;13.25;;
39322;SDS011;25036;53.638;10.134;2022-08-19T02:47:26;19.52;;;12.20;;
39322;SDS011;25036;53.638;10.134;2022-08-19T02:48:27;16.93;;;11.50;;
39322;SDS011;25036;53.638;10.134;2022-08-19T02:49:27;19.73;;;12.70;;
39322;SDS011;25036;53.638;10.134;2022-08-19T02:50:27;18.77;;;12.30;;
39322;SDS011;25036;53.638;10.134;2022-08-19T02:51:32;18.55;;;12.82;;
39322;SDS011;25036;53.638;10.134;2022-08-19T02:52:33;19.50;;;12.60;;
39322;SDS011;25036;53.638;10.134;2022-08-19T02:53:33;17.48;;;11.43;;
39322;SDS011;25036;53.638;10.134;2022-08-19T02:54:33;20.48;;;11.60;;
39322;SDS011;25036;53.638;10.134;2022-08-19T02:55:34;17.35;;;10.70;;
39322;SDS011;25036;53.638;10.134;2022-08-19T02:56:38;17.98;;;12.15;;
39322;SDS011;25036;53.638;10.134;2022-08-19T02:57:38;16.40;;;11.02;;
39322;SDS011;25036;53.638;10.134;2022-08-19T02:58:38;17.30;;;11.90;;
39322;SDS011;25036;53.638;10.134;2022-08-19T02:59:39;15.30;;;11.52;;
39322;SDS011;25036;53.638;10.134;2022-08-19T03:00:43;15.85;;;11.13;;
39322;SDS011;25036;53.638;10.134;2022-08-19T03:01:43;21.30;;;12.98;;
39322;SDS011;25036;53.638;10.134;2022-08-19T03:02:45;17.35;;;12.07;;
39322;SDS011;25036;53.638;10.134;2022-08-19T03:03:46;18.48;;;12.43;;
39322;SDS011;25036;53.638;10.134;2022-08-19T03:04:46;17.53;;;11.67;;
39322;SDS011;25036;53.638;10.134;2022-08-19T03:05:46;17.93;;;12.20;;
39322;SDS011;25036;53.638;10.134;2022-08-19T03:06:47;19.95;;;11.45;;
39322;SDS011;25036;53.638;10.134;2022-08-19T03:07:47;19.77;;;12.70;;
39322;SDS011;25036;53.638;10.134;2022-08-19T03:08:48;18.40;;;11.57;;
39322;SDS011;25036;53.638;10.134;2022-08-19T03:09:49;17.50;;;11.60;;
39322;SDS011;25036;53.638;10.134;2022-08-19T03:10:49;16.73;;;11.55;;
39322;SDS011;25036;53.638;10.134;2022-08-19T03:11:51;16.85;;;11.82;;
39322;SDS011;25036;53.638;10.134;2022-08-19T03:12:51;23.10;;;13.27;;
39322;SDS011;25036;53.638;10.134;2022-08-19T03:13:52;19.10;;;11.80;;
39322;SDS011;25036;53.638;10.134;2022-08-19T03:14:53;15.13;;;11.60;;
39322;SDS011;25036;53.638;10.134;2022-08-19T03:15:53;16.93;;;11.33;;
39322;SDS011;25036;53.638;10.134;2022-08-19T03:16:53;17.30;;;12.30;;
39322;SDS011;25036;53.638;10.134;2022-08-19T03:17:53;17.67;;;11.53;;
39322;SDS011;25036;53.638;10.134;2022-08-19T03:18:55;16.38;;;11.45;;
39322;SDS011;25036;53.638;10.134;2022-08-19T03:19:55;16.38;;;12.20;;
39322;SDS011;25036;53.638;10.134;2022-08-19T03:20:56;16.87;;;12.07;;
39322;SDS011;25036;53.638;10.134;2022-08-19T03:21:56;21.23;;;12.73;;
39322;SDS011;25036;53.638;10.134;2022-08-19T03:22:56;18.93;;;13.23;;
39322;SDS011;25036;53.638;10.134;2022-08-19T03:23:57;19.47;;;13.00;;
39322;SDS011;25036;53.638;10.134;2022-08-19T03:24:57;24.50;;;13.52;;
39322;SDS011;25036;53.638;10.134;2022-08-19T03:25:59;17.65;;;11.40;;
39322;SDS011;25036;53.638;10.134;2022-08-19T03:27:03;17.33;;;11.35;;
39322;SDS011;25036;53.638;10.134;2022-08-19T03:28:04;18.60;;;11.93;;
39322;SDS011;25036;53.638;10.134;2022-08-19T03:29:05;17.48;;;11.50;;
39322;SDS011;25036;53.638;10.134;2022-08-19T03:30:05;18.55;;;10.38;;
39322;SDS011;25036;53.638;10.134;2022-08-19T03:31:09;19.63;;;11.77;;
39322;SDS011;25036;53.638;10.134;2022-08-19T03:32:10;18.27;;;11.20;;
39322;SDS011;25036;53.638;10.134;2022-08-19T03:33:10;17.77;;;11.85;;
39322;SDS011;25036;53.638;10.134;2022-08-19T03:34:15;18.23;;;11.27;;
39322;SDS011;25036;53.638;10.134;2022-08-19T03:35:17;15.57;;;10.80;;
39322;SDS011;25036;53.638;10.134;2022-08-19T03:36:19;17.77;;;11.30;;
39322;SDS011;25036;53.638;10.134;2022-08-19T03:37:20;16.08;;;11.70;;
39322;SDS011;25036;53.638;10.134;2022-08-19T03:38:20;17.98;;;10.48;;
39322;SDS011;25036;53.638;10.134;2022-08-19T03:39:21;18.97;;;12.20;;
39322;SDS011;25036;53.638;10.134;2022-08-19T03:40:21;17.42;;;10.77;;
39322;SDS011;25036;53.638;10.134;2022-08-19T03:41:22;17.85;;;11.15;;
39322;SDS011;25036;53.638;10.134;2022-08-19T03:42:23;19.35;;;11.73;;
39322;SDS011;25036;53.638;10.134;2022-08-19T03:43:26;22.15;;;11.70;;
39322;SDS011;25036;53.638;10.134;2022-08-19T03:44:26;18.63;;;11.53;;
39322;SDS011;25036;53.638;10.134;2022-08-19T03:45:27;17.20;;;11.43;;
39322;SDS011;25036;53.638;10.134;2022-08-19T03:46:28;15.63;;;11.75;;
39322;SDS011;25036;53.638;10.134;2022-08-19T03:47:29;18.75;;;11.38;;
39322;SDS011;25036;53.638;10.134;2022-08-19T03:48:30;20.40;;;11.27;;
39322;SDS011;25036;53.638;10.134;2022-08-19T03:49:31;16.63;;;11.25;;
39322;SDS011;25036;53.638;10.134;2022-08-19T03:50:32;18.95;;;11.30;;
39322;SDS011;25036;53.638;10.134;2022-08-19T03:51:34;18.77;;;11.85;;
39322;SDS011;25036;53.638;10.134;2022-08-19T03:52:34;18.45;;;10.73;;
39322;SDS011;25036;53.638;10.134;2022-08-19T03:53:35;18.52;;;11.45;;
39322;SDS011;25036;53.638;10.134;2022-08-19T03:54:36;16.70;;;10.33;;
39322;SDS011;25036;53.638;10.134;2022-08-19T03:55:41;17.15;;;10.43;;
39322;SDS011;25036;53.638;10.134;2022-08-19T03:56:42;15.13;;;10.80;;
39322;SDS011;25036;53.638;10.134;2022-08-19T03:57:43;14.13;;;10.63;;
39322;SDS011;25036;53.638;10.134;2022-08-19T03:58:45;17.15;;;11.43;;
39322;SDS011;25036;53.638;10.134;2022-08-19T03:59:46;15.95;;;11.45;;
39322;SDS011;25036;53.638;10.134;2022-08-19T04:00:46;19.13;;;11.65;;
39322;SDS011;25036;53.638;10.134;2022-08-19T04:01:46;16.90;;;11.33;;
39322;SDS011;25036;53.638;10.134;2022-08-19T04:02:47;19.08;;;11.15;;
39322;SDS011;25036;53.638;10.134;2022-08-19T04:03:47;16.20;;;10.97;;
39322;SDS011;25036;53.638;10.134;2022-08-19T04:04:47;15.45;;;10.48;;
39322;SDS011;25036;53.638;10.134;2022-08-19T04:05:48;16.33;;;11.73;;
39322;SDS011;25036;53.638;10.134;2022-08-19T04:06:48;16.80;;;11.37;;
39322;SDS011;25036;53.638;10.134;2022-08-19T04:07:48;19.48;;;11.00;;
39322;SDS011;25036;53.638;10.134;2022-08-19T04:08:50;15.30;;;10.77;;
39322;SDS011;25036;53.638;10.134;2022-08-19T04:09:50;15.18;;;10.68;;
39322;SDS011;25036;53.638;10.134;2022-08-19T04:10:51;18.52;;;11.32;;
39322;SDS011;25036;53.638;10.134;2022-08-19T04:11:53;14.55;;;9.68;;
39322;SDS011;25036;53.638;10.134;2022-08-19T04:12:53;13.05;;;9.68;;
39322;SDS011;25036;53.638;10.134;2022-08-19T04:13:54;15.57;;;11.23;;
39322;SDS011;25036;53.638;10.134;2022-08-19T04:14:54;14.90;;;10.27;;
39322;SDS011;25036;53.638;10.134;2022-08-19T04:15:54;15.77;;;9.93;;
39322;SDS011;25036;53.638;10.134;2022-08-19T04:16:54;16.70;;;11.00;;
39322;SDS011;25036;53.638;10.134;2022-08-19T04:17:54;15.20;;;11.20;;
39322;SDS011;25036;53.638;10.134;2022-08-19T04:18:55;16.40;;;11.67;;
39322;SDS011;25036;53.638;10.134;2022-08-19T04:19:56;15.25;;;10.80;;
39322;SDS011;25036;53.638;10.134;2022-08-19T04:20:56;16.67;;;11.87;;
39322;SDS011;25036;53.638;10.134;2022-08-19T04:21:56;16.55;;;10.55;;
39322;SDS011;25036;53.638;10.134;2022-08-19T04:22:57;15.95;;;10.77;;
39322;SDS011;25036;53.638;10.134;2022-08-19T04:23:57;16.03;;;11.33;;
39322;SDS011;25036;53.638;10.134;2022-08-19T04:24:57;16.52;;;11.10;;
39322;SDS011;25036;53.638;10.134;2022-08-19T04:25:57;15.35;;;10.90;;
39322;SDS011;25036;53.638;10.134;2022-08-19T04:26:59;18.20;;;12.98;;
39322;SDS011;25036;53.638;10.134;2022-08-19T04:27:59;16.98;;;10.75;;
39322;SDS011;25036;53.638;10.134;2022-08-19T04:29:00;15.27;;;10.83;;
39322;SDS011;25036;53.638;10.134;2022-08-19T04:30:01;15.15;;;11.35;;
39322;SDS011;25036;53.638;10.134;2022-08-19T04:31:01;17.30;;;11.30;;
39322;SDS011;25036;53.638;10.134;2022-08-19T04:32:02;15.30;;;10.87;;
39322;SDS011;25036;53.638;10.134;2022-08-19T04:33:02;16.30;;;11.38;;
39322;SDS011;25036;53.638;10.134;2022-08-19T04:34:05;15.90;;;11.43;;
39322;SDS011;25036;53.638;10.134;2022-08-19T04:35:05;17.92;;;11.77;;
39322;SDS011;25036;53.638;10.134;2022-08-19T04:36:05;17.23;;;11.55;;
39322;SDS011;25036;53.638;10.134;2022-08-19T04:37:06;16.90;;;11.98;;
39322;SDS011;25036;53.638;10.134;2022-08-19T04:38:13;16.08;;;11.82;;
39322;SDS011;25036;53.638;10.134;2022-08-19T04:39:15;16.60;;;12.05;;
39322;SDS011;25036;53.638;10.134;2022-08-19T04:40:15;19.73;;;13.35;;
39322;SDS011;25036;53.638;10.134;2022-08-19T04:41:48;18.88;;;13.48;;
39322;SDS011;25036;53.638;10.134;2022-08-19T04:43:07;17.00;;;12.38;;
39322;SDS011;25036;53.638;10.134;2022-08-19T04:44:08;19.05;;;11.50;;
39322;SDS011;25036;53.638;10.134;2022-08-19T04:45:12;21.27;;;13.70;;
39322;SDS011;25036;53.638;10.134;2022-08-19T04:46:12;22.10;;;13.70;;
39322;SDS011;25036;53.638;10.134;2022-08-19T04:47:12;21.10;;;14.03;;
39322;SDS011;25036;53.638;10.134;2022-08-19T04:48:13;18.05;;;13.02;;
39322;SDS011;25036;53.638;10.134;2022-08-19T04:49:13;19.87;;;13.80;;
39322;SDS011;25036;53.638;10.134;2022-08-19T04:50:14;20.00;;;13.35;;
39322;SDS011;25036;53.638;10.134;2022-08-19T04:51:14;23.63;;;15.40;;
39322;SDS011;25036;53.638;10.134;2022-08-19T04:52:15;24.30;;;14.68;;
39322;SDS011;25036;53.638;10.134;2022-08-19T04:53:15;20.58;;;13.48;;
39322;SDS011;25036;53.638;10.134;2022-08-19T04:54:16;21.42;;;14.23;;
39322;SDS011;25036;53.638;10.134;2022-08-19T04:55:16;18.83;;;13.25;;
39322;SDS011;25036;53.638;10.134;2022-08-19T04:56:18;21.52;;;14.00;;
39322;SDS011;25036;53.638;10.134;2022-08-19T04:57:21;21.98;;;14.80;;
39322;SDS011;25036;53.638;10.134;2022-08-19T04:58:22;27.48;;;17.52;;
39322;SDS011;25036;53.638;10.134;2022-08-19T04:59:23;25.00;;;16.48;;
39322;SDS011;25036;53.638;10.134;2022-08-19T05:00:23;17.57;;;12.43;;
39322;SDS011;25036;53.638;10.134;2022-08-19T05:01:25;20.23;;;14.85;;
39322;SDS011;25036;53.638;10.134;2022-08-19T05:02:25;25.27;;;16.70;;
39322;SDS011;25036;53.638;10.134;2022-08-19T05:03:25;25.43;;;15.67;;
39322;SDS011;25036;53.638;10.134;2022-08-19T05:04:25;23.40;;;15.88;;
39322;SDS011;25036;53.638;10.134;2022-08-19T05:05:26;29.30;;;17.03;;
39322;SDS011;25036;53.638;10.134;2022-08-19T05:06:26;26.47;;;16.63;;
39322;SDS011;25036;53.638;10.134;2022-08-19T05:07:27;25.55;;;16.70;;
39322;SDS011;25036;53.638;10.134;2022-08-19T05:08:27;24.70;;;17.10;;
39322;SDS011;25036;53.638;10.134;2022-08-19T05:09:29;29.48;;;16.98;;
39322;SDS011;25036;53.638;10.134;2022-08-19T05:10:29;26.42;;;17.20;;
39322;SDS011;25036;53.638;10.134;2022-08-19T05:11:34;25.13;;;16.13;;
39322;SDS011;25036;53.638;10.134;2022-08-19T05:12:35;24.42;;;17.77;;
39322;SDS011;25036;53.638;10.134;2022-08-19T05:13:35;22.75;;;15.73;;
39322;SDS011;25036;53.638;10.134;2022-08-19T05:14:35;22.90;;;15.90;;
39322;SDS011;25036;53.638;10.134;2022-08-19T05:15:36;21.45;;;16.20;;
39322;SDS011;25036;53.638;10.134;2022-08-19T05:16:36;19.98;;;15.98;;
39322;SDS011;25036;53.638;10.134;2022-08-19T05:17:36;27.67;;;15.83;;
39322;SDS011;25036;53.638;10.134;2022-08-19T05:18:37;20.08;;;15.27;;
39322;SDS011;25036;53.638;10.134;2022-08-19T05:19:56;24.75;;;14.60;;
39322;SDS011;25036;53.638;10.134;2022-08-19T05:21:16;19.90;;;13.85;;
39322;SDS011;25036;53.638;10.134;2022-08-19T05:22:35;25.10;;;15.05;;
39322;SDS011;25036;53.638;10.134;2022-08-19T05:23:36;19.83;;;15.00;;
39322;SDS011;25036;53.638;10.134;2022-08-19T05:24:36;23.37;;;16.57;;
39322;SDS011;25036;53.638;10.134;2022-08-19T05:25:38;22.27;;;15.63;;
39322;SDS011;25036;53.638;10.134;2022-08-19T05:26:39;24.95;;;15.05;;
39322;SDS011;25036;53.638;10.134;2022-08-19T05:27:40;18.40;;;15.15;;
39322;SDS011;25036;53.638;10.134;2022-08-19T05:28:41;25.52;;;15.93;;
39322;SDS011;25036;53.638;10.134;2022-08-19T05:29:41;24.53;;;15.83;;
39322;SDS011;25036;53.638;10.134;2022-08-19T05:30:41;23.70;;;16.63;;
39322;SDS011;25036;53.638;10.134;2022-08-19T05:31:43;24.08;;;16.83;;
39322;SDS011;25036;53.638;10.134;2022-08-19T05:32:43;21.60;;;15.38;;
39322;SDS011;25036;53.638;10.134;2022-08-19T05:33:43;21.83;;;14.90;;
39322;SDS011;25036;53.638;10.134;2022-08-19T05:34:44;21.08;;;15.13;;
39322;SDS011;25036;53.638;10.134;2022-08-19T05:35:44;24.63;;;15.97;;
39322;SDS011;25036;53.638;10.134;2022-08-19T05:36:54;20.38;;;14.13;;
39322;SDS011;25036;53.638;10.134;2022-08-19T05:37:56;25.40;;;15.30;;
39322;SDS011;25036;53.638;10.134;2022-08-19T05:38:59;19.90;;;14.35;;
39322;SDS011;25036;53.638;10.134;2022-08-19T05:40:00;22.55;;;14.77;;
39322;SDS011;25036;53.638;10.134;2022-08-19T05:41:00;20.73;;;13.27;;
39322;SDS011;25036;53.638;10.134;2022-08-19T05:42:03;19.35;;;14.20;;
39322;SDS011;25036;53.638;10.134;2022-08-19T05:43:07;19.45;;;13.40;;
39322;SDS011;25036;53.638;10.134;2022-08-19T05:44:07;17.33;;;12.32;;
39322;SDS011;25036;53.638;10.134;2022-08-19T05:45:09;17.98;;;13.65;;
39322;SDS011;25036;53.638;10.134;2022-08-19T05:46:15;18.38;;;12.82;;
39322;SDS011;25036;53.638;10.134;2022-08-19T05:47:16;18.02;;;13.63;;
39322;SDS011;25036;53.638;10.134;2022-08-19T05:48:16;19.77;;;13.07;;
39322;SDS011;25036;53.638;10.134;2022-08-19T05:49:21;17.88;;;12.43;;
39322;SDS011;25036;53.638;10.134;2022-08-19T05:50:21;20.40;;;12.60;;
39322;SDS011;25036;53.638;10.134;2022-08-19T05:51:22;17.67;;;12.35;;
39322;SDS011;25036;53.638;10.134;2022-08-19T05:52:23;17.15;;;13.52;;
39322;SDS011;25036;53.638;10.134;2022-08-19T05:53:23;17.40;;;13.93;;
39322;SDS011;25036;53.638;10.134;2022-08-19T05:54:23;19.27;;;13.38;;
39322;SDS011;25036;53.638;10.134;2022-08-19T05:55:24;17.67;;;12.80;;
39322;SDS011;25036;53.638;10.134;2022-08-19T05:56:24;18.03;;;13.47;;